sensor_id;sensor_type;location;lat;lon;timestamp;temperature;humidity
20141;DHT22;10231;47.702;9.826;2023-02-13T00:02:23;1.70;99.90
20141;DHT22;10231;47.702;9.826;2023-02-13T00:04:48;1.60;99.90
20141;DHT22;10231;47.702;9.826;2023-02-13T00:07:14;1.60;99.90
20141;DHT22;10231;47.702;9.826;2023-02-13T00:09:40;1.60;99.90
20141;DHT22;10231;47.702;9.826;2023-02-13T00:12:06;1.60;99.90
20141;DHT22;10231;47.702;9.826;2023-02-13T00:14:36;1.60;99.90
20141;DHT22;10231;47.702;9.826;2023-02-13T00:17:02;1.60;99.90
20141;DHT22;10231;47.702;9.826;2023-02-13T00:19:28;1.70;99.90
20141;DHT22;10231;47.702;9.826;2023-02-13T00:21:53;1.70;99.90
20141;DHT22;10231;47.702;9.826;2023-02-13T00:24:19;1.80;99.90
20141;DHT22;10231;47.702;9.826;2023-02-13T00:26:45;1.80;99.90
20141;DHT22;10231;47.702;9.826;2023-02-13T00:29:10;1.90;99.90
20141;DHT22;10231;47.702;9.826;2023-02-13T00:31:36;1.90;99.90
20141;DHT22;10231;47.702;9.826;2023-02-13T00:34:01;1.90;99.90
20141;DHT22;10231;47.702;9.826;2023-02-13T00:36:27;1.90;99.90
20141;DHT22;10231;47.702;9.826;2023-02-13T00:38:53;2.00;99.90
20141;DHT22;10231;47.702;9.826;2023-02-13T00:41:19;1.90;99.90
20141;DHT22;10231;47.702;9.826;2023-02-13T00:43:46;2.00;99.90
20141;DHT22;10231;47.702;9.826;2023-02-13T00:46:12;2.00;99.90
20141;DHT22;10231;47.702;9.826;2023-02-13T00:48:37;2.10;99.90
20141;DHT22;10231;47.702;9.826;2023-02-13T00:51:04;2.10;99.90
20141;DHT22;10231;47.702;9.826;2023-02-13T00:53:30;2.10;99.90
20141;DHT22;10231;47.702;9.826;2023-02-13T00:55:56;2.20;99.90
20141;DHT22;10231;47.702;9.826;2023-02-13T00:58:22;2.10;99.90
20141;DHT22;10231;47.702;9.826;2023-02-13T01:00:48;2.20;99.90
20141;DHT22;10231;47.702;9.826;2023-02-13T01:03:15;2.20;99.90
20141;DHT22;10231;47.702;9.826;2023-02-13T01:05:42;2.10;99.90
20141;DHT22;10231;47.702;9.826;2023-02-13T01:08:08;2.20;99.90
20141;DHT22;10231;47.702;9.826;2023-02-13T01:10:34;2.20;99.90
20141;DHT22;10231;47.702;9.826;2023-02-13T01:13:01;2.20;99.90
20141;DHT22;10231;47.702;9.826;2023-02-13T01:15:26;2.30;99.90
20141;DHT22;10231;47.702;9.826;2023-02-13T01:17:53;2.30;99.90
20141;DHT22;10231;47.702;9.826;2023-02-13T01:20:22;2.30;99.90
20141;DHT22;10231;47.702;9.826;2023-02-13T01:22:50;2.30;99.90
20141;DHT22;10231;47.702;9.826;2023-02-13T01:25:16;2.30;99.90
20141;DHT22;10231;47.702;9.826;2023-02-13T01:27:41;2.30;99.90
20141;DHT22;10231;47.702;9.826;2023-02-13T01:30:09;2.20;99.90
20141;DHT22;10231;47.702;9.826;2023-02-13T01:32:38;2.30;99.90
20141;DHT22;10231;47.702;9.826;2023-02-13T01:35:05;2.30;99.90
20141;DHT22;10231;47.702;9.826;2023-02-13T01:37:30;2.30;99.90
20141;DHT22;10231;47.702;9.826;2023-02-13T01:39:56;2.20;99.90
20141;DHT22;10231;47.702;9.826;2023-02-13T01:42:27;2.30;99.90
20141;DHT22;10231;47.702;9.826;2023-02-13T01:44:55;2.30;99.90
20141;DHT22;10231;47.702;9.826;2023-02-13T01:50:07;2.30;99.90
20141;DHT22;10231;47.702;9.826;2023-02-13T01:52:36;2.40;99.90
20141;DHT22;10231;47.702;9.826;2023-02-13T01:55:03;2.30;99.90
20141;DHT22;10231;47.702;9.826;2023-02-13T01:57:30;2.30;99.90
20141;DHT22;10231;47.702;9.826;2023-02-13T02:00:06;2.30;99.90
20141;DHT22;10231;47.702;9.826;2023-02-13T02:02:36;2.40;99.90
20141;DHT22;10231;47.702;9.826;2023-02-13T02:05:04;2.40;99.90
20141;DHT22;10231;47.702;9.826;2023-02-13T02:07:30;2.40;99.90
20141;DHT22;10231;47.702;9.826;2023-02-13T02:10:00;2.40;99.90
20141;DHT22;10231;47.702;9.826;2023-02-13T02:14:59;2.40;99.90
20141;DHT22;10231;47.702;9.826;2023-02-13T02:17:26;2.40;99.90
20141;DHT22;10231;47.702;9.826;2023-02-13T02:30:45;2.30;99.90
20141;DHT22;10231;47.702;9.826;2023-02-13T02:33:40;2.40;99.90
20141;DHT22;10231;47.702;9.826;2023-02-13T02:36:20;2.40;99.90
20141;DHT22;10231;47.702;9.826;2023-02-13T02:38:57;2.40;99.90
20141;DHT22;10231;47.702;9.826;2023-02-13T02:45:22;2.40;99.90
20141;DHT22;10231;47.702;9.826;2023-02-13T02:48:11;2.40;99.90
20141;DHT22;10231;47.702;9.826;2023-02-13T02:51:09;2.40;99.90
20141;DHT22;10231;47.702;9.826;2023-02-13T02:53:43;2.30;99.90
20141;DHT22;10231;47.702;9.826;2023-02-13T02:56:18;2.30;99.90
20141;DHT22;10231;47.702;9.826;2023-02-13T02:58:57;2.30;99.90
20141;DHT22;10231;47.702;9.826;2023-02-13T03:01:43;2.40;99.90
20141;DHT22;10231;47.702;9.826;2023-02-13T03:04:35;2.40;99.90
20141;DHT22;10231;47.702;9.826;2023-02-13T03:07:20;2.40;99.90
20141;DHT22;10231;47.702;9.826;2023-02-13T03:09:57;2.40;99.90
20141;DHT22;10231;47.702;9.826;2023-02-13T03:13:04;2.40;99.90
20141;DHT22;10231;47.702;9.826;2023-02-13T03:16:01;2.50;99.90
20141;DHT22;10231;47.702;9.826;2023-02-13T03:18:50;2.40;99.90
20141;DHT22;10231;47.702;9.826;2023-02-13T03:24:39;2.40;99.90
20141;DHT22;10231;47.702;9.826;2023-02-13T03:30:43;2.40;99.90
20141;DHT22;10231;47.702;9.826;2023-02-13T03:41:49;2.40;99.90
20141;DHT22;10231;47.702;9.826;2023-02-13T03:47:13;2.40;99.90
20141;DHT22;10231;47.702;9.826;2023-02-13T03:49:45;2.30;99.90
20141;DHT22;10231;47.702;9.826;2023-02-13T03:52:49;2.30;99.90
20141;DHT22;10231;47.702;9.826;2023-02-13T03:55:25;2.30;99.90
20141;DHT22;10231;47.702;9.826;2023-02-13T04:01:19;2.20;99.90
20141;DHT22;10231;47.702;9.826;2023-02-13T04:03:58;2.20;99.90
20141;DHT22;10231;47.702;9.826;2023-02-13T04:06:45;2.20;99.90
20141;DHT22;10231;47.702;9.826;2023-02-13T04:09:13;2.20;99.90
20141;DHT22;10231;47.702;9.826;2023-02-13T04:14:26;2.40;99.90
20141;DHT22;10231;47.702;9.826;2023-02-13T04:16:58;2.30;99.90
20141;DHT22;10231;47.702;9.826;2023-02-13T04:19:27;2.30;99.90
20141;DHT22;10231;47.702;9.826;2023-02-13T04:21:57;2.30;99.90
20141;DHT22;10231;47.702;9.826;2023-02-13T04:24:24;2.30;99.90
20141;DHT22;10231;47.702;9.826;2023-02-13T04:26:50;2.20;99.90
20141;DHT22;10231;47.702;9.826;2023-02-13T04:29:16;2.20;99.90
20141;DHT22;10231;47.702;9.826;2023-02-13T04:31:42;2.10;99.90
20141;DHT22;10231;47.702;9.826;2023-02-13T04:34:08;2.10;99.90
20141;DHT22;10231;47.702;9.826;2023-02-13T04:36:33;2.10;99.90
20141;DHT22;10231;47.702;9.826;2023-02-13T04:38:59;2.10;99.90
20141;DHT22;10231;47.702;9.826;2023-02-13T04:41:24;2.10;99.90
20141;DHT22;10231;47.702;9.826;2023-02-13T04:43:50;2.10;99.90
20141;DHT22;10231;47.702;9.826;2023-02-13T04:46:17;2.10;99.90
20141;DHT22;10231;47.702;9.826;2023-02-13T04:48:42;2.10;99.90
20141;DHT22;10231;47.702;9.826;2023-02-13T04:51:08;2.10;99.90
20141;DHT22;10231;47.702;9.826;2023-02-13T04:53:33;2.10;99.90
20141;DHT22;10231;47.702;9.826;2023-02-13T04:55:59;2.20;99.90
20141;DHT22;10231;47.702;9.826;2023-02-13T04:58:25;2.10;99.90
20141;DHT22;10231;47.702;9.826;2023-02-13T05:00:50;2.10;99.90
20141;DHT22;10231;47.702;9.826;2023-02-13T05:03:16;2.20;99.90
20141;DHT22;10231;47.702;9.826;2023-02-13T05:05:41;2.10;99.90
20141;DHT22;10231;47.702;9.826;2023-02-13T05:08:09;2.20;99.90
20141;DHT22;10231;47.702;9.826;2023-02-13T05:10:34;2.20;99.90
20141;DHT22;10231;47.702;9.826;2023-02-13T05:13:00;2.10;99.90
20141;DHT22;10231;47.702;9.826;2023-02-13T05:15:26;2.10;99.90
20141;DHT22;10231;47.702;9.826;2023-02-13T05:17:52;2.10;99.90
20141;DHT22;10231;47.702;9.826;2023-02-13T05:20:17;2.10;99.90
20141;DHT22;10231;47.702;9.826;2023-02-13T05:25:28;2.10;99.90
20141;DHT22;10231;47.702;9.826;2023-02-13T05:27:54;2.10;99.90
20141;DHT22;10231;47.702;9.826;2023-02-13T05:30:19;2.00;99.90
20141;DHT22;10231;47.702;9.826;2023-02-13T05:32:45;2.10;99.90
20141;DHT22;10231;47.702;9.826;2023-02-13T05:35:11;2.10;99.90
20141;DHT22;10231;47.702;9.826;2023-02-13T05:37:36;2.10;99.90
20141;DHT22;10231;47.702;9.826;2023-02-13T05:40:02;2.20;99.90
20141;DHT22;10231;47.702;9.826;2023-02-13T05:42:27;2.10;99.90
20141;DHT22;10231;47.702;9.826;2023-02-13T05:44:53;2.10;99.90
20141;DHT22;10231;47.702;9.826;2023-02-13T05:47:18;2.10;99.90
20141;DHT22;10231;47.702;9.826;2023-02-13T05:49:44;2.10;99.90
20141;DHT22;10231;47.702;9.826;2023-02-13T05:52:09;2.20;99.90
20141;DHT22;10231;47.702;9.826;2023-02-13T05:54:35;2.20;99.90
20141;DHT22;10231;47.702;9.826;2023-02-13T05:57:02;2.10;99.90
20141;DHT22;10231;47.702;9.826;2023-02-13T05:59:28;2.20;99.90
20141;DHT22;10231;47.702;9.826;2023-02-13T06:01:54;2.20;99.90
20141;DHT22;10231;47.702;9.826;2023-02-13T06:04:19;2.20;99.90
20141;DHT22;10231;47.702;9.826;2023-02-13T06:06:45;2.20;99.90
20141;DHT22;10231;47.702;9.826;2023-02-13T06:09:10;2.10;99.90
20141;DHT22;10231;47.702;9.826;2023-02-13T06:11:36;2.10;99.90
20141;DHT22;10231;47.702;9.826;2023-02-13T06:14:01;2.10;99.90
20141;DHT22;10231;47.702;9.826;2023-02-13T06:16:27;2.20;99.90
20141;DHT22;10231;47.702;9.826;2023-02-13T06:18:55;2.20;99.90
20141;DHT22;10231;47.702;9.826;2023-02-13T06:21:21;2.10;99.90
20141;DHT22;10231;47.702;9.826;2023-02-13T06:23:46;2.10;99.90
20141;DHT22;10231;47.702;9.826;2023-02-13T06:26:12;2.10;99.90
20141;DHT22;10231;47.702;9.826;2023-02-13T06:28:37;2.20;99.90
20141;DHT22;10231;47.702;9.826;2023-02-13T06:31:03;2.10;99.90
20141;DHT22;10231;47.702;9.826;2023-02-13T06:33:29;2.10;99.90
20141;DHT22;10231;47.702;9.826;2023-02-13T06:35:54;2.10;99.90
20141;DHT22;10231;47.702;9.826;2023-02-13T06:38:20;2.10;99.90
20141;DHT22;10231;47.702;9.826;2023-02-13T06:40:46;2.20;99.90
20141;DHT22;10231;47.702;9.826;2023-02-13T06:43:12;2.10;99.90
20141;DHT22;10231;47.702;9.826;2023-02-13T06:45:39;2.10;99.90
20141;DHT22;10231;47.702;9.826;2023-02-13T06:48:04;2.10;99.90
20141;DHT22;10231;47.702;9.826;2023-02-13T06:50:30;2.00;99.90
20141;DHT22;10231;47.702;9.826;2023-02-13T06:52:56;2.10;99.90
20141;DHT22;10231;47.702;9.826;2023-02-13T06:55:21;2.10;99.90
20141;DHT22;10231;47.702;9.826;2023-02-13T06:57:47;2.20;99.90
20141;DHT22;10231;47.702;9.826;2023-02-13T07:00:14;2.10;99.90
20141;DHT22;10231;47.702;9.826;2023-02-13T07:02:40;2.20;99.90
20141;DHT22;10231;47.702;9.826;2023-02-13T07:05:06;2.20;99.90
20141;DHT22;10231;47.702;9.826;2023-02-13T07:07:34;2.20;99.90
20141;DHT22;10231;47.702;9.826;2023-02-13T07:10:01;2.30;99.90
20141;DHT22;10231;47.702;9.826;2023-02-13T07:12:27;2.30;99.90
20141;DHT22;10231;47.702;9.826;2023-02-13T07:14:52;2.30;99.90
20141;DHT22;10231;47.702;9.826;2023-02-13T07:17:18;2.40;99.90
20141;DHT22;10231;47.702;9.826;2023-02-13T07:19:43;2.40;99.90
20141;DHT22;10231;47.702;9.826;2023-02-13T07:22:09;2.40;99.90
20141;DHT22;10231;47.702;9.826;2023-02-13T07:24:34;2.40;99.90
20141;DHT22;10231;47.702;9.826;2023-02-13T07:27:03;2.40;99.90
20141;DHT22;10231;47.702;9.826;2023-02-13T07:29:29;2.40;99.90
20141;DHT22;10231;47.702;9.826;2023-02-13T07:31:54;2.40;99.90
20141;DHT22;10231;47.702;9.826;2023-02-13T07:34:20;2.40;99.90
20141;DHT22;10231;47.702;9.826;2023-02-13T07:36:45;2.50;99.90
20141;DHT22;10231;47.702;9.826;2023-02-13T07:39:11;2.40;99.90
20141;DHT22;10231;47.702;9.826;2023-02-13T07:41:36;2.40;99.90
20141;DHT22;10231;47.702;9.826;2023-02-13T07:44:02;2.50;99.90
20141;DHT22;10231;47.702;9.826;2023-02-13T07:46:27;2.40;99.90
20141;DHT22;10231;47.702;9.826;2023-02-13T07:48:53;2.50;99.90
20141;DHT22;10231;47.702;9.826;2023-02-13T07:51:18;2.50;99.90
20141;DHT22;10231;47.702;9.826;2023-02-13T07:53:44;2.40;99.90
20141;DHT22;10231;47.702;9.826;2023-02-13T07:56:09;2.50;99.90
20141;DHT22;10231;47.702;9.826;2023-02-13T07:58:36;2.50;99.90
20141;DHT22;10231;47.702;9.826;2023-02-13T08:01:09;2.40;99.90
20141;DHT22;10231;47.702;9.826;2023-02-13T08:03:35;2.50;99.90
20141;DHT22;10231;47.702;9.826;2023-02-13T08:06:02;2.60;99.90
20141;DHT22;10231;47.702;9.826;2023-02-13T08:08:28;2.60;99.90
20141;DHT22;10231;47.702;9.826;2023-02-13T08:10:54;2.70;99.90
20141;DHT22;10231;47.702;9.826;2023-02-13T08:13:39;2.70;99.90
20141;DHT22;10231;47.702;9.826;2023-02-13T08:16:04;2.70;99.90
20141;DHT22;10231;47.702;9.826;2023-02-13T08:18:30;2.70;99.90
20141;DHT22;10231;47.702;9.826;2023-02-13T08:20:56;2.70;99.90
20141;DHT22;10231;47.702;9.826;2023-02-13T08:23:21;2.70;99.90
20141;DHT22;10231;47.702;9.826;2023-02-13T08:25:47;2.70;99.90
20141;DHT22;10231;47.702;9.826;2023-02-13T08:28:15;2.70;99.90
20141;DHT22;10231;47.702;9.826;2023-02-13T08:30:40;2.80;99.90
20141;DHT22;10231;47.702;9.826;2023-02-13T08:33:06;2.70;99.90
20141;DHT22;10231;47.702;9.826;2023-02-13T08:35:32;2.70;99.90
20141;DHT22;10231;47.702;9.826;2023-02-13T08:38:04;2.80;99.90
20141;DHT22;10231;47.702;9.826;2023-02-13T08:40:31;2.80;99.90
20141;DHT22;10231;47.702;9.826;2023-02-13T08:43:00;2.80;99.90
20141;DHT22;10231;47.702;9.826;2023-02-13T08:45:27;2.80;99.90
20141;DHT22;10231;47.702;9.826;2023-02-13T08:47:59;2.70;99.90
20141;DHT22;10231;47.702;9.826;2023-02-13T08:50:26;2.80;99.90
20141;DHT22;10231;47.702;9.826;2023-02-13T08:52:52;2.70;99.90
20141;DHT22;10231;47.702;9.826;2023-02-13T08:55:18;2.80;99.90
20141;DHT22;10231;47.702;9.826;2023-02-13T08:57:43;2.80;99.90
20141;DHT22;10231;47.702;9.826;2023-02-13T09:00:09;2.80;99.90
20141;DHT22;10231;47.702;9.826;2023-02-13T09:02:35;2.80;99.90
20141;DHT22;10231;47.702;9.826;2023-02-13T09:05:00;2.80;99.90
20141;DHT22;10231;47.702;9.826;2023-02-13T09:07:26;2.90;99.90
20141;DHT22;10231;47.702;9.826;2023-02-13T09:09:52;2.90;99.90
20141;DHT22;10231;47.702;9.826;2023-02-13T09:12:17;2.90;99.90
20141;DHT22;10231;47.702;9.826;2023-02-13T09:14:43;2.90;99.90
20141;DHT22;10231;47.702;9.826;2023-02-13T09:17:08;2.90;99.90
20141;DHT22;10231;47.702;9.826;2023-02-13T09:19:34;3.00;99.90
20141;DHT22;10231;47.702;9.826;2023-02-13T09:21:59;2.90;99.90
20141;DHT22;10231;47.702;9.826;2023-02-13T09:24:25;3.00;99.90
20141;DHT22;10231;47.702;9.826;2023-02-13T09:26:51;3.00;99.90
20141;DHT22;10231;47.702;9.826;2023-02-13T09:29:16;3.10;99.90
20141;DHT22;10231;47.702;9.826;2023-02-13T09:31:42;3.00;99.90
20141;DHT22;10231;47.702;9.826;2023-02-13T09:34:08;3.00;99.90
20141;DHT22;10231;47.702;9.826;2023-02-13T09:36:33;3.00;99.90
20141;DHT22;10231;47.702;9.826;2023-02-13T09:39:00;3.00;99.90
20141;DHT22;10231;47.702;9.826;2023-02-13T09:41:38;3.00;99.90
20141;DHT22;10231;47.702;9.826;2023-02-13T09:44:28;3.10;99.90
20141;DHT22;10231;47.702;9.826;2023-02-13T09:47:01;3.10;99.90
20141;DHT22;10231;47.702;9.826;2023-02-13T09:49:31;3.20;99.90
20141;DHT22;10231;47.702;9.826;2023-02-13T09:51:58;3.20;99.90
20141;DHT22;10231;47.702;9.826;2023-02-13T09:54:23;3.20;99.90
20141;DHT22;10231;47.702;9.826;2023-02-13T09:56:59;3.30;99.90
20141;DHT22;10231;47.702;9.826;2023-02-13T10:02:36;3.40;99.90
20141;DHT22;10231;47.702;9.826;2023-02-13T10:05:22;3.40;99.90
20141;DHT22;10231;47.702;9.826;2023-02-13T10:08:03;3.50;99.90
20141;DHT22;10231;47.702;9.826;2023-02-13T10:10:55;3.50;99.90
20141;DHT22;10231;47.702;9.826;2023-02-13T10:16:18;3.60;99.90
20141;DHT22;10231;47.702;9.826;2023-02-13T10:21:22;3.60;99.90
20141;DHT22;10231;47.702;9.826;2023-02-13T10:24:08;3.60;99.90
20141;DHT22;10231;47.702;9.826;2023-02-13T10:26:37;3.70;99.90
20141;DHT22;10231;47.702;9.826;2023-02-13T10:29:18;3.70;99.90
20141;DHT22;10231;47.702;9.826;2023-02-13T10:32:07;3.80;99.90
20141;DHT22;10231;47.702;9.826;2023-02-13T10:34:41;3.90;99.90
20141;DHT22;10231;47.702;9.826;2023-02-13T10:37:19;3.90;99.90
20141;DHT22;10231;47.702;9.826;2023-02-13T10:39:48;3.90;99.90
20141;DHT22;10231;47.702;9.826;2023-02-13T10:42:21;3.90;99.90
20141;DHT22;10231;47.702;9.826;2023-02-13T10:50:33;4.10;99.90
20141;DHT22;10231;47.702;9.826;2023-02-13T10:59:13;4.30;99.90
20141;DHT22;10231;47.702;9.826;2023-02-13T11:01:56;4.30;99.90
20141;DHT22;10231;47.702;9.826;2023-02-13T11:04:24;4.40;99.90
20141;DHT22;10231;47.702;9.826;2023-02-13T11:06:56;4.40;99.90
20141;DHT22;10231;47.702;9.826;2023-02-13T11:09:23;4.40;99.90
20141;DHT22;10231;47.702;9.826;2023-02-13T11:11:49;4.40;99.90
20141;DHT22;10231;47.702;9.826;2023-02-13T11:14:22;4.50;99.90
20141;DHT22;10231;47.702;9.826;2023-02-13T11:17:11;4.50;99.90
20141;DHT22;10231;47.702;9.826;2023-02-13T11:19:54;4.50;99.90
20141;DHT22;10231;47.702;9.826;2023-02-13T11:22:32;4.40;99.90
20141;DHT22;10231;47.702;9.826;2023-02-13T11:25:11;4.50;99.90
20141;DHT22;10231;47.702;9.826;2023-02-13T11:27:41;4.50;99.90
20141;DHT22;10231;47.702;9.826;2023-02-13T11:30:30;4.50;99.90
20141;DHT22;10231;47.702;9.826;2023-02-13T11:32:59;4.50;99.90
20141;DHT22;10231;47.702;9.826;2023-02-13T11:40:42;4.50;99.90
20141;DHT22;10231;47.702;9.826;2023-02-13T11:43:27;4.70;99.90
20141;DHT22;10231;47.702;9.826;2023-02-13T11:46:23;4.70;99.90
20141;DHT22;10231;47.702;9.826;2023-02-13T11:49:06;4.80;99.90
20141;DHT22;10231;47.702;9.826;2023-02-13T11:51:46;4.80;99.90
20141;DHT22;10231;47.702;9.826;2023-02-13T11:54:32;4.80;99.90
20141;DHT22;10231;47.702;9.826;2023-02-13T11:57:20;4.90;99.90
20141;DHT22;10231;47.702;9.826;2023-02-13T11:59:48;4.90;99.90
20141;DHT22;10231;47.702;9.826;2023-02-13T12:04:41;5.00;99.90
20141;DHT22;10231;47.702;9.826;2023-02-13T12:09:47;5.20;99.90
20141;DHT22;10231;47.702;9.826;2023-02-13T12:13:03;5.30;99.90
20141;DHT22;10231;47.702;9.826;2023-02-13T12:15:20;5.40;99.90
20141;DHT22;10231;47.702;9.826;2023-02-13T12:17:53;5.40;99.90
20141;DHT22;10231;47.702;9.826;2023-02-13T12:20:22;5.60;99.90
20141;DHT22;10231;47.702;9.826;2023-02-13T12:23:08;5.60;99.90
20141;DHT22;10231;47.702;9.826;2023-02-13T12:25:56;5.60;99.90
20141;DHT22;10231;47.702;9.826;2023-02-13T12:28:51;5.70;99.90
20141;DHT22;10231;47.702;9.826;2023-02-13T12:31:54;5.70;99.90
20141;DHT22;10231;47.702;9.826;2023-02-13T12:39:46;5.80;99.90
20141;DHT22;10231;47.702;9.826;2023-02-13T12:45:33;5.90;99.90
20141;DHT22;10231;47.702;9.826;2023-02-13T12:48:54;6.00;99.90
20141;DHT22;10231;47.702;9.826;2023-02-13T12:51:24;6.00;99.90
20141;DHT22;10231;47.702;9.826;2023-02-13T12:54:34;6.10;99.90
20141;DHT22;10231;47.702;9.826;2023-02-13T13:02:44;6.60;99.90
20141;DHT22;10231;47.702;9.826;2023-02-13T13:05:21;6.60;99.90
20141;DHT22;10231;47.702;9.826;2023-02-13T13:08:11;6.80;99.90
20141;DHT22;10231;47.702;9.826;2023-02-13T13:13:40;6.70;99.90
20141;DHT22;10231;47.702;9.826;2023-02-13T13:16:26;6.90;99.90
20141;DHT22;10231;47.702;9.826;2023-02-13T13:21:54;7.20;99.90
20141;DHT22;10231;47.702;9.826;2023-02-13T13:26:57;7.40;99.90
20141;DHT22;10231;47.702;9.826;2023-02-13T13:29:30;7.60;99.90
20141;DHT22;10231;47.702;9.826;2023-02-13T13:32:01;7.70;99.90
20141;DHT22;10231;47.702;9.826;2023-02-13T13:34:30;7.80;99.90
20141;DHT22;10231;47.702;9.826;2023-02-13T13:37:09;7.90;99.90
20141;DHT22;10231;47.702;9.826;2023-02-13T13:39:52;8.00;99.90
20141;DHT22;10231;47.702;9.826;2023-02-13T13:42:41;8.10;99.90
20141;DHT22;10231;47.702;9.826;2023-02-13T13:48:04;8.40;99.90
20141;DHT22;10231;47.702;9.826;2023-02-13T13:50:38;8.50;99.90
20141;DHT22;10231;47.702;9.826;2023-02-13T13:58:34;9.00;99.90
20141;DHT22;10231;47.702;9.826;2023-02-13T14:06:18;9.90;99.90
20141;DHT22;10231;47.702;9.826;2023-02-13T14:13:52;10.60;99.90
20141;DHT22;10231;47.702;9.826;2023-02-13T14:16:41;10.90;99.90
20141;DHT22;10231;47.702;9.826;2023-02-13T14:21:52;11.30;99.90
20141;DHT22;10231;47.702;9.826;2023-02-13T14:24:19;11.60;99.90
20141;DHT22;10231;47.702;9.826;2023-02-13T14:26:53;11.90;99.90
20141;DHT22;10231;47.702;9.826;2023-02-13T14:29:24;12.10;99.90
20141;DHT22;10231;47.702;9.826;2023-02-13T14:32:03;12.10;99.90
20141;DHT22;10231;47.702;9.826;2023-02-13T14:34:33;12.10;99.90
20141;DHT22;10231;47.702;9.826;2023-02-13T14:37:19;12.40;99.90
20141;DHT22;10231;47.702;9.826;2023-02-13T14:45:56;12.00;99.90
20141;DHT22;10231;47.702;9.826;2023-02-13T14:48:31;12.10;99.90
20141;DHT22;10231;47.702;9.826;2023-02-13T14:50:58;12.00;99.90
20141;DHT22;10231;47.702;9.826;2023-02-13T14:53:34;11.60;99.90
20141;DHT22;10231;47.702;9.826;2023-02-13T14:56:12;11.10;99.90
20141;DHT22;10231;47.702;9.826;2023-02-13T14:58:59;10.70;99.90
20141;DHT22;10231;47.702;9.826;2023-02-13T15:01:34;10.30;99.90
20141;DHT22;10231;47.702;9.826;2023-02-13T15:06:49;9.70;99.90
20141;DHT22;10231;47.702;9.826;2023-02-13T15:09:29;9.50;99.90
20141;DHT22;10231;47.702;9.826;2023-02-13T15:11:57;9.30;99.90
20141;DHT22;10231;47.702;9.826;2023-02-13T15:14:33;9.20;99.90
20141;DHT22;10231;47.702;9.826;2023-02-13T15:17:15;9.00;99.90
20141;DHT22;10231;47.702;9.826;2023-02-13T15:20:06;8.90;99.90
20141;DHT22;10231;47.702;9.826;2023-02-13T15:22:45;8.80;99.90
20141;DHT22;10231;47.702;9.826;2023-02-13T15:25:33;8.70;99.90
20141;DHT22;10231;47.702;9.826;2023-02-13T15:28:02;8.60;99.90
20141;DHT22;10231;47.702;9.826;2023-02-13T15:30:36;8.60;99.90
20141;DHT22;10231;47.702;9.826;2023-02-13T15:33:15;8.60;99.90
20141;DHT22;10231;47.702;9.826;2023-02-13T15:35:41;8.50;99.90
20141;DHT22;10231;47.702;9.826;2023-02-13T15:38:26;8.40;99.90
20141;DHT22;10231;47.702;9.826;2023-02-13T15:40:58;8.40;99.90
20141;DHT22;10231;47.702;9.826;2023-02-13T15:43:34;8.30;99.90
20141;DHT22;10231;47.702;9.826;2023-02-13T15:48:48;8.20;99.90
20141;DHT22;10231;47.702;9.826;2023-02-13T15:51:24;8.00;99.90
20141;DHT22;10231;47.702;9.826;2023-02-13T15:53:57;7.90;99.90
20141;DHT22;10231;47.702;9.826;2023-02-13T15:56:24;7.90;99.90
20141;DHT22;10231;47.702;9.826;2023-02-13T15:58:50;7.90;99.90
20141;DHT22;10231;47.702;9.826;2023-02-13T16:01:17;7.80;99.90
20141;DHT22;10231;47.702;9.826;2023-02-13T16:03:45;7.70;99.90
20141;DHT22;10231;47.702;9.826;2023-02-13T16:06:18;8.00;99.90
20141;DHT22;10231;47.702;9.826;2023-02-13T16:08:51;8.80;99.90
20141;DHT22;10231;47.702;9.826;2023-02-13T16:11:46;9.90;99.90
20141;DHT22;10231;47.702;9.826;2023-02-13T16:14:17;10.50;99.90
20141;DHT22;10231;47.702;9.826;2023-02-13T16:19:59;10.50;99.90
20141;DHT22;10231;47.702;9.826;2023-02-13T16:22:33;10.10;99.90
20141;DHT22;10231;47.702;9.826;2023-02-13T16:27:42;9.10;99.90
20141;DHT22;10231;47.702;9.826;2023-02-13T16:32:48;8.00;99.90
20141;DHT22;10231;47.702;9.826;2023-02-13T16:35:26;7.60;99.90
20141;DHT22;10231;47.702;9.826;2023-02-13T16:37:58;7.30;99.90
20141;DHT22;10231;47.702;9.826;2023-02-13T16:43:34;6.70;99.90
20141;DHT22;10231;47.702;9.826;2023-02-13T16:54:04;6.10;99.90
20141;DHT22;10231;47.702;9.826;2023-02-13T16:56:50;6.00;99.90
20141;DHT22;10231;47.702;9.826;2023-02-13T16:59:25;5.90;99.90
20141;DHT22;10231;47.702;9.826;2023-02-13T17:02:28;5.80;99.90
20141;DHT22;10231;47.702;9.826;2023-02-13T17:07:38;5.70;99.90
20141;DHT22;10231;47.702;9.826;2023-02-13T17:12:58;5.50;99.90
20141;DHT22;10231;47.702;9.826;2023-02-13T17:15:27;5.40;99.90
20141;DHT22;10231;47.702;9.826;2023-02-13T17:17:54;5.40;99.90
20141;DHT22;10231;47.702;9.826;2023-02-13T17:20:26;5.40;99.90
20141;DHT22;10231;47.702;9.826;2023-02-13T17:22:54;5.30;99.90
20141;DHT22;10231;47.702;9.826;2023-02-13T17:25:23;5.20;99.90
20141;DHT22;10231;47.702;9.826;2023-02-13T17:27:55;5.10;99.90
20141;DHT22;10231;47.702;9.826;2023-02-13T17:30:30;5.00;99.90
20141;DHT22;10231;47.702;9.826;2023-02-13T17:33:02;4.90;99.90
20141;DHT22;10231;47.702;9.826;2023-02-13T17:35:28;4.90;99.90
20141;DHT22;10231;47.702;9.826;2023-02-13T17:37:53;4.80;99.90
20141;DHT22;10231;47.702;9.826;2023-02-13T17:40:21;4.80;99.90
20141;DHT22;10231;47.702;9.826;2023-02-13T17:42:52;4.80;99.90
20141;DHT22;10231;47.702;9.826;2023-02-13T17:45:20;4.70;99.90
20141;DHT22;10231;47.702;9.826;2023-02-13T17:47:46;4.60;99.90
20141;DHT22;10231;47.702;9.826;2023-02-13T17:50:12;4.60;99.90
20141;DHT22;10231;47.702;9.826;2023-02-13T17:52:39;4.50;99.90
20141;DHT22;10231;47.702;9.826;2023-02-13T17:55:23;4.50;99.90
20141;DHT22;10231;47.702;9.826;2023-02-13T17:57:49;4.50;99.90
20141;DHT22;10231;47.702;9.826;2023-02-13T18:00:18;4.40;99.90
20141;DHT22;10231;47.702;9.826;2023-02-13T18:02:48;4.30;99.90
20141;DHT22;10231;47.702;9.826;2023-02-13T18:05:15;4.30;99.90
20141;DHT22;10231;47.702;9.826;2023-02-13T18:07:42;4.20;99.90
20141;DHT22;10231;47.702;9.826;2023-02-13T18:10:16;4.20;99.90
20141;DHT22;10231;47.702;9.826;2023-02-13T18:12:43;4.00;99.90
20141;DHT22;10231;47.702;9.826;2023-02-13T18:15:10;4.00;99.90
20141;DHT22;10231;47.702;9.826;2023-02-13T18:17:36;3.80;99.90
20141;DHT22;10231;47.702;9.826;2023-02-13T18:20:03;3.70;99.90
20141;DHT22;10231;47.702;9.826;2023-02-13T18:22:29;3.80;99.90
20141;DHT22;10231;47.702;9.826;2023-02-13T18:24:55;3.80;99.90
20141;DHT22;10231;47.702;9.826;2023-02-13T18:27:21;3.80;99.90
20141;DHT22;10231;47.702;9.826;2023-02-13T18:29:47;3.70;99.90
20141;DHT22;10231;47.702;9.826;2023-02-13T18:32:13;3.70;99.90
20141;DHT22;10231;47.702;9.826;2023-02-13T18:34:39;3.60;99.90
20141;DHT22;10231;47.702;9.826;2023-02-13T18:37:05;3.50;99.90
20141;DHT22;10231;47.702;9.826;2023-02-13T18:39:31;3.40;99.90
20141;DHT22;10231;47.702;9.826;2023-02-13T18:41:56;3.50;99.90
20141;DHT22;10231;47.702;9.826;2023-02-13T18:44:22;3.40;99.90
20141;DHT22;10231;47.702;9.826;2023-02-13T18:46:47;3.20;99.90
20141;DHT22;10231;47.702;9.826;2023-02-13T18:49:13;3.10;99.90